Solea — DBFI — position and weather

sailwx.info

Track history (hours):
 
Tides and Currents Weather Stations Pressure Air Temp Water Temp Dewpoint Dewpoint Depression Visibility Wind Speed Wind Dir Waves Ship Positions

Oceanographic research ship Solea (Germany)

Detailed information on ship capabilities available from University of Delaware's Ocean Information Center.

Last reported at 2019-Sep-18 09:39 UTC. Time now 2019-Sep-21 04:40 UTC.
Position N 53°31' E 008°35'.

Length 72 m; draft 5.2 m.

Type: Law enforcement. MMSI: 218692000.

Date/timePositionNaut miles runAvg speedWind from/ knotsBaromVisibWave heightAir tempDewpointWater temp
2019-Sep-18 09:39N 53°31' E 008°35'0 0.0
2019-Sep-18 09:30N 53°31' E 008°35'0 0.0
2019-Sep-18 09:00N 53°31' E 008°35'0 0.0
2019-Sep-18 08:30N 53°31' E 008°35'0 0.0
2019-Sep-18 08:00N 53°31' E 008°35'0 0.0
2019-Sep-18 07:30N 53°31' E 008°35'0 0.0
2019-Sep-18 06:57N 53°31' E 008°35'0 0.0
2019-Sep-18 06:30N 53°31' E 008°35'0 0.0
2019-Sep-18 05:57N 53°31' E 008°35'0 0.0
2019-Sep-18 05:30N 53°31' E 008°35'0 0.0
2019-Sep-18 05:00N 53°31' E 008°35'0 0.0
2019-Sep-18 04:30N 53°31' E 008°35'0 0.0
2019-Sep-18 04:00N 53°31' E 008°35'0 0.0
2019-Sep-18 03:27N 53°31' E 008°35'0 0.0
2019-Sep-18 03:00N 53°31' E 008°35'0 0.0
2019-Sep-18 02:27N 53°31' E 008°35'0 0.0
2019-Sep-18 01:54N 53°31' E 008°35'0 0.0
2019-Sep-18 01:30N 53°31' E 008°35'0 0.0
2019-Sep-18 01:00N 53°31' E 008°35'0 0.0
2019-Sep-18 00:27N 53°31' E 008°35'0 0.0
2019-Sep-17 23:59N 53°31' E 008°35'0 0.0
2019-Sep-17 23:26N 53°31' E 008°35'0 0.0
2019-Sep-17 23:00N 53°31' E 008°35'0 0.0
2019-Sep-17 22:30N 53°31' E 008°35'0 0.0
2019-Sep-17 22:00N 53°31' E 008°35'0 0.0
2019-Sep-17 21:29N 53°31' E 008°35'0 0.0
2019-Sep-17 20:59N 53°31' E 008°35'0 0.0
2019-Sep-17 20:29N 53°31' E 008°35'0 0.0
2019-Sep-17 19:59N 53°31' E 008°35'0 0.0
2019-Sep-17 19:26N 53°31' E 008°35'0 0.0
2019-Sep-17 18:59N 53°31' E 008°35'0 0.0
2019-Sep-17 18:29N 53°31' E 008°35'0 0.0
2019-Sep-17 17:56N 53°31' E 008°35'0 0.0
2019-Sep-17 17:29N 53°31' E 008°35'0 0.0
2019-Sep-17 16:56N 53°31' E 008°35'0 0.0
2019-Sep-17 16:29N 53°31' E 008°35'0 0.0
2019-Sep-17 15:59N 53°31' E 008°35'0 0.0
2019-Sep-17 15:29N 53°31' E 008°35'0 0.0
2019-Sep-17 14:59N 53°31' E 008°35'0 0.0
2019-Sep-17 14:29N 53°31' E 008°35'0 0.0
2019-Sep-17 13:56N 53°31' E 008°35'0 0.0
2019-Sep-17 13:29N 53°31' E 008°35'0 0.0
2019-Sep-17 12:59N 53°31' E 008°35'0 0.0
2019-Sep-17 12:26N 53°31' E 008°35'0 0.0
2019-Sep-17 11:59N 53°31' E 008°35'0 0.0
2019-Sep-17 11:29N 53°31' E 008°35'0 0.0
2019-Sep-17 10:59N 53°31' E 008°35'0 0.0
2019-Sep-17 10:29N 53°31' E 008°35'0 0.0
2019-Sep-17 09:59N 53°31' E 008°35'0 0.0
2019-Sep-17 09:26N 53°31' E 008°35'0 0.0
2019-Sep-17 08:56N 53°31' E 008°35'0 0.0
2019-Sep-17 08:29N 53°31' E 008°35'0 0.0
2019-Sep-17 07:59N 53°31' E 008°35'0 0.0
2019-Sep-17 07:29N 53°31' E 008°35'0 0.0
2019-Sep-17 06:59N 53°31' E 008°35'0 0.0
2019-Sep-17 06:29N 53°31' E 008°35'0 0.0
2019-Sep-17 05:59N 53°31' E 008°35'0 0.0
2019-Sep-17 05:29N 53°31' E 008°35'0 0.0
2019-Sep-17 04:59N 53°31' E 008°35'0 0.0
2019-Sep-17 04:29N 53°31' E 008°35'0 0.0
2019-Sep-17 03:59N 53°31' E 008°35'0 0.0
2019-Sep-17 03:30N 53°31' E 008°35'1 2.2
2019-Sep-17 03:01N 53°32' E 008°35'0 0.4
2019-Sep-17 02:30N 53°32' E 008°35'510.5
2019-Sep-17 02:01N 53°36' E 008°30'816.0
2019-Sep-17 01:30N 53°42' E 008°20'816.0
2019-Sep-17 01:00N 53°47' E 008°09'815.3
2019-Sep-17 00:31N 53°51' E 007°59'612.5
2019-Sep-17 00:00N 53°52' E 007°48'10 7.8
2019-Sep-16 22:47N 53°50' E 007°33'1 0.7
2019-Sep-16 21:58N 53°50' E 007°34'1 2.1
2019-Sep-16 21:30N 53°49' E 007°33'13 5.7
2019-Sep-16 19:11N 54°01' E 007°41'2 9.4
2019-Sep-16 19:01N 54°01' E 007°44'5 9.6
2019-Sep-16 18:31N 54°02' E 007°52'5 9.7
2019-Sep-16 18:00N 54°02' E 008°01'510.6
2019-Sep-16 17:31N 54°01' E 008°09'918.3
2019-Sep-16 17:01N 53°59' E 008°25'918.6
2019-Sep-16 16:31N 53°56' E 008°40'917.0
2019-Sep-16 16:00N 53°50' E 008°51'816.3
2019-Sep-16 15:31N 53°52' E 009°04'3 6.3
2019-Sep-16 15:01N 53°54' E 009°09'1 1.2
2019-Sep-16 14:30N 53°54' E 009°10'4 7.7
2019-Sep-16 14:00N 53°57' E 009°14'4 8.2
2019-Sep-16 13:31N 54°00' E 009°18'4 8.7
2019-Sep-16 13:00N 54°05' E 009°19'4 8.4
2019-Sep-16 12:30N 54°09' E 009°21'4 8.6
2019-Sep-16 12:00N 54°11' E 009°27'4 8.6
2019-Sep-16 11:30N 54°12' E 009°34'4 7.3
2019-Sep-16 11:00N 54°16' E 009°37'2 3.3
2019-Sep-16 10:30N 54°17' E 009°39'1 2.3
2019-Sep-16 10:00N 54°18' E 009°40'0 0.0
2019-Sep-16 09:30N 54°18' E 009°40'0 0.0
2019-Sep-16 09:00N 54°18' E 009°40'0 0.0
2019-Sep-16 08:30N 54°18' E 009°40'0 0.0
2019-Sep-16 08:00N 54°18' E 009°40'0 0.0
2019-Sep-16 07:30N 54°18' E 009°40'0 0.0
2019-Sep-16 07:00N 54°18' E 009°40'0 0.0
2019-Sep-16 06:30N 54°18' E 009°40'0 0.0
2019-Sep-16 06:00N 54°18' E 009°40'0 0.0
2019-Sep-16 05:30N 54°18' E 009°40'0 0.0
2019-Sep-16 05:00N 54°18' E 009°40'0 0.0
2019-Sep-16 04:30N 54°18' E 009°40'0 0.0
2019-Sep-16 04:00N 54°18' E 009°40'0 0.0
2019-Sep-16 03:30N 54°18' E 009°40'0 0.0
2019-Sep-16 03:00N 54°18' E 009°40'0 0.0
2019-Sep-16 02:30N 54°18' E 009°40'0 0.0
2019-Sep-16 02:00N 54°18' E 009°40'0 0.0
2019-Sep-16 01:30N 54°18' E 009°40'0 0.0
2019-Sep-16 01:00N 54°18' E 009°40'0 0.0
2019-Sep-16 00:30N 54°18' E 009°40'0 0.0
2019-Sep-16 00:00N 54°18' E 009°40'0 0.0
2019-Sep-15 23:29N 54°18' E 009°40'0 0.0
2019-Sep-15 22:59N 54°18' E 009°40'0 0.0
2019-Sep-15 22:29N 54°18' E 009°40'0 0.0
2019-Sep-15 21:59N 54°18' E 009°40'0 0.0
2019-Sep-15 21:29N 54°18' E 009°40'0 0.0
2019-Sep-15 20:59N 54°18' E 009°40'0 0.0
2019-Sep-15 20:29N 54°18' E 009°40'0 0.0
2019-Sep-15 19:59N 54°18' E 009°40'0 0.0
2019-Sep-15 19:29N 54°18' E 009°40'0 0.0
2019-Sep-15 18:59N 54°18' E 009°40'0 0.0
2019-Sep-15 18:29N 54°18' E 009°40'0 0.0
2019-Sep-15 17:59N 54°18' E 009°40'0 0.0
2019-Sep-15 17:29N 54°18' E 009°40'0 0.0
2019-Sep-15 16:59N 54°18' E 009°40'0 0.0
2019-Sep-15 16:29N 54°18' E 009°40'0 0.0
2019-Sep-15 15:59N 54°18' E 009°40'0 0.0
2019-Sep-15 15:29N 54°18' E 009°40'0 0.0
2019-Sep-15 14:59N 54°18' E 009°40'0 0.0
2019-Sep-15 14:29N 54°18' E 009°40'0 0.0
2019-Sep-15 13:59N 54°18' E 009°40'0 0.0
2019-Sep-15 13:29N 54°18' E 009°40'0 0.0
2019-Sep-15 12:59N 54°18' E 009°40'0 0.0
2019-Sep-15 12:29N 54°18' E 009°40'0 0.0
2019-Sep-15 11:59N 54°18' E 009°40'0 0.0
2019-Sep-15 11:29N 54°18' E 009°40'0 0.0
2019-Sep-15 10:59N 54°18' E 009°40'0 0.2
2019-Sep-15 10:30N 54°18' E 009°40'2 3.2
2019-Sep-15 10:00N 54°18' E 009°43'7 6.7
2019-Sep-15 08:58N 54°21' E 009°54'4 7.8
2019-Sep-15 08:30N 54°21' E 009°60'4 7.9
2019-Sep-15 08:00N 54°22' E 010°06'1 2.7
2019-Sep-15 07:30N 54°22' E 010°08'0 0.0
2019-Sep-15 07:00N 54°22' E 010°08'0 0.9
2019-Sep-15 06:30N 54°22' E 010°09'1 1.7
2019-Sep-15 06:00N 54°22' E 010°10'1 1.9
2019-Sep-15 05:30N 54°23' E 010°11'3 6.0
2019-Sep-15 05:00N 54°26' E 010°13'510.1
2019-Sep-15 04:30N 54°30' E 010°18'2 4.4
2019-Sep-15 04:00N 54°32' E 010°17'0 1.0
2019-Sep-15 03:30N 54°33' E 010°17'1 1.3
2019-Sep-15 03:00N 54°33' E 010°17'1 1.1
2019-Sep-15 02:30N 54°33' E 010°17'1 1.1
2019-Sep-15 02:00N 54°32' E 010°17'0 0.6
2019-Sep-15 01:30N 54°33' E 010°17'1 1.7
2019-Sep-15 01:00N 54°33' E 010°17'1 1.1
2019-Sep-15 00:30N 54°33' E 010°17'1 1.1
2019-Sep-15 00:00N 54°32' E 010°17'0 0.9
2019-Sep-14 23:30N 54°33' E 010°17'1 1.5
2019-Sep-14 23:00N 54°33' E 010°17'0 0.9
2019-Sep-14 22:30N 54°33' E 010°17'0 1.0
2019-Sep-14 22:00N 54°33' E 010°17'1 1.0
2019-Sep-14 21:31N 54°32' E 010°17'1 1.9
2019-Sep-14 21:00N 54°33' E 010°17'1 1.3
2019-Sep-14 20:31N 54°34' E 010°16'0 0.7
2019-Sep-14 20:01N 54°33' E 010°16'0 0.7
2019-Sep-14 19:31N 54°33' E 010°17'0 0.7
2019-Sep-14 19:01N 54°33' E 010°17'0 0.6
2019-Sep-14 18:31N 54°32' E 010°17'0 0.6
2019-Sep-14 18:00N 54°32' E 010°17'0 0.5
2019-Sep-14 17:31N 54°32' E 010°17'2 3.2
2019-Sep-14 17:01N 54°33' E 010°18'0 0.6
2019-Sep-14 16:31N 54°33' E 010°18'0 0.6
2019-Sep-14 16:01N 54°33' E 010°18'3 6.6
2019-Sep-14 15:30N 54°34' E 010°23'4 9.0
2019-Sep-14 15:01N 54°35' E 010°31'5 9.2
2019-Sep-14 14:30N 54°36' E 010°38'4 9.2
2019-Sep-14 14:01N 54°37' E 010°46'4 8.6
2019-Sep-14 13:30N 54°38' E 010°53'3 6.6
2019-Sep-14 13:01N 54°36' E 010°56'4 8.4
2019-Sep-14 12:30N 54°36' E 011°03'4 8.1
2019-Sep-14 12:00N 54°36' E 011°10'4 8.1
2019-Sep-14 11:31N 54°34' E 011°17'4 8.0
2019-Sep-14 11:01N 54°32' E 011°23'4 8.4
2019-Sep-14 10:31N 54°31' E 011°29'4 7.9
2019-Sep-14 10:00N 54°29' E 011°36'4 7.8
2019-Sep-14 09:29N 54°27' E 011°42'8 8.2
2019-Sep-14 08:28N 54°21' E 011°52'4 8.2
2019-Sep-14 08:00N 54°18' E 011°56'4 8.9
2019-Sep-14 07:30N 54°15' E 012°01'3 2.8
2019-Sep-14 06:24N 54°12' E 012°03'2 2.9
2019-Sep-14 05:48N 54°12' E 012°00'2 4.5
2019-Sep-14 05:18N 54°11' E 011°57'2 5.6
2019-Sep-14 04:56N 54°11' E 011°53'2 5.4
2019-Sep-14 04:30N 54°10' E 011°50'0 0.6
2019-Sep-14 04:00N 54°10' E 011°50'1 0.7
2019-Sep-14 03:14N 54°11' E 011°49'0 0.7
2019-Sep-14 02:59N 54°11' E 011°49'0 0.8
2019-Sep-14 02:30N 54°11' E 011°49'0 0.5
2019-Sep-14 01:36N 54°11' E 011°49'0 0.4
2019-Sep-14 01:03N 54°11' E 011°49'0 0.7
2019-Sep-14 00:46N 54°11' E 011°49'0 0.7
2019-Sep-14 00:27N 54°11' E 011°49'0 0.8
2019-Sep-13 23:58N 54°12' E 011°48'1 0.5
2019-Sep-13 22:13N 54°11' E 011°49'0 2.3
2019-Sep-13 22:00N 54°10' E 011°49'2 3.7
2019-Sep-13 21:30N 54°12' E 011°48'1 0.6
2019-Sep-13 19:57N 54°13' E 011°49'5 9.3
2019-Sep-13 19:27N 54°16' E 011°55'5 8.8
2019-Sep-13 18:55N 54°19' E 012°01'15 8.7
2019-Sep-13 17:13N 54°27' E 012°23'2 9.2
2019-Sep-13 16:59N 54°29' E 012°25'4 9.2
2019-Sep-13 16:30N 54°32' E 012°29'11 0.2
2019-Sep-11 14:14N 54°36' E 012°46'210.4
2019-Sep-11 14:00N 54°35' E 012°42'510.3
2019-Sep-11 13:30N 54°34' E 012°34'510.2
2019-Sep-11 13:00N 54°31' E 012°26'4 8.3
2019-Sep-11 12:30N 54°28' E 012°21'4 8.6
2019-Sep-11 12:01N 54°24' E 012°18'3 5.4
2019-Sep-11 11:25N 54°21' E 012°15'1 2.9
2019-Sep-11 10:59N 54°21' E 012°13'1 2.3
2019-Sep-11 10:26N 54°21' E 012°11'3 7.7
2019-Sep-11 09:59N 54°23' E 012°16'5 9.1
2019-Sep-11 09:29N 54°26' E 012°21'5 9.0
2019-Sep-11 08:53N 54°31' E 012°26'13 0.6
2019-Sep-10 09:29N 54°36' E 012°47'510.0
2019-Sep-10 09:00N 54°34' E 012°40'510.1
2019-Sep-10 08:30N 54°34' E 012°31'15 8.6
2019-Sep-10 06:45N 54°21' E 012°16'0 1.8
2019-Sep-10 06:30N 54°21' E 012°16'3 6.0
2019-Sep-10 06:00N 54°20' E 012°12'5 9.8
2019-Sep-10 05:30N 54°19' E 012°03'9 3.9
2019-Sep-10 03:18N 54°14' E 011°51'0 1.2
2019-Sep-10 02:59N 54°14' E 011°51'2 1.2
2019-Sep-10 00:51N 54°11' E 011°52'0 0.8
2019-Sep-10 00:27N 54°11' E 011°51'0 1.0
2019-Sep-09 23:57N 54°11' E 011°51'0 0.2
2019-Sep-09 22:15N 54°10' E 011°51'0 0.2
2019-Sep-09 22:01N 54°11' E 011°51'0 0.4
2019-Sep-09 21:31N 54°11' E 011°51'1 0.5
2019-Sep-09 20:32N 54°10' E 011°51'0 0.3
2019-Sep-09 19:57N 54°10' E 011°51'0 0.6
2019-Sep-09 19:30N 54°10' E 011°51'0 0.4
2019-Sep-09 19:00N 54°10' E 011°51'0 0.4
2019-Sep-09 17:55N 54°11' E 011°51'1 1.4
2019-Sep-09 17:30N 54°10' E 011°51'0 0.7
2019-Sep-09 17:00N 54°10' E 011°51'1 0.4
2019-Sep-09 15:29N 54°10' E 011°50'1 1.2
2019-Sep-09 15:00N 54°11' E 011°51'4 7.1
2019-Sep-09 14:27N 54°14' E 011°53'4 9.9
2019-Sep-09 14:00N 54°15' E 012°01'6 7.0
2019-Sep-09 13:11N 54°10' E 012°07'0 0.8
2019-Sep-09 12:44N 54°11' E 012°07'0 0.0
2019-Sep-09 12:29N 54°11' E 012°07'0 0.0
2019-Sep-09 11:56N 54°11' E 012°07'0 0.0
2019-Sep-09 09:41N 54°11' E 012°07'0 0.0
2019-Sep-09 09:17N 54°11' E 012°07'0 0.0
2019-Sep-09 08:59N 54°11' E 012°07'0 0.0
2019-Sep-09 04:44N 54°11' E 012°07'0 0.0
2019-Sep-09 04:26N 54°11' E 012°07'0 0.0
2019-Sep-09 03:02N 54°11' E 012°07'0 0.0
2019-Sep-09 02:59N 54°11' E 012°07'0 0.0
2019-Sep-08 23:50N 54°11' E 012°07'0 0.0
2019-Sep-08 21:41N 54°11' E 012°07'0 0.0
2019-Sep-08 21:29N 54°11' E 012°07'0 0.0
2019-Sep-08 19:32N 54°11' E 012°07'0 0.0
2019-Sep-08 19:29N 54°11' E 012°07'0 0.0
2019-Sep-08 16:11N 54°11' E 012°07'0 0.0
2019-Sep-08 15:29N 54°11' E 012°07'0 0.0
2019-Sep-08 12:59N 54°11' E 012°07'0 0.0
2019-Sep-08 12:08N 54°11' E 012°07'  
Track history (hours):
 
Tides and Currents Weather Stations Pressure Air Temp Water Temp Dewpoint Dewpoint Depression Visibility Wind Speed Wind Dir Waves Ship Positions

Oceanographic research ship Solea (Germany)

Detailed information on ship capabilities available from University of Delaware's Ocean Information Center.

Last reported at 2019-Sep-18 09:39 UTC. Time now 2019-Sep-21 04:40 UTC.
Position N 53°31' E 008°35'.

Length 72 m; draft 5.2 m.

Type: Law enforcement. MMSI: 218692000.

Date/timePositionNaut miles runAvg speedWind from/ knotsBaromVisibWave heightAir tempDewpointWater temp
2019-Sep-18 09:39N 53°31' E 008°35'0 0.0
2019-Sep-18 09:30N 53°31' E 008°35'0 0.0
2019-Sep-18 09:00N 53°31' E 008°35'0 0.0
2019-Sep-18 08:30N 53°31' E 008°35'0 0.0
2019-Sep-18 08:00N 53°31' E 008°35'0 0.0
2019-Sep-18 07:30N 53°31' E 008°35'0 0.0
2019-Sep-18 06:57N 53°31' E 008°35'0 0.0
2019-Sep-18 06:30N 53°31' E 008°35'0 0.0
2019-Sep-18 05:57N 53°31' E 008°35'0 0.0
2019-Sep-18 05:30N 53°31' E 008°35'0 0.0
2019-Sep-18 05:00N 53°31' E 008°35'0 0.0
2019-Sep-18 04:30N 53°31' E 008°35'0 0.0
2019-Sep-18 04:00N 53°31' E 008°35'0 0.0
2019-Sep-18 03:27N 53°31' E 008°35'0 0.0
2019-Sep-18 03:00N 53°31' E 008°35'0 0.0
2019-Sep-18 02:27N 53°31' E 008°35'0 0.0
2019-Sep-18 01:54N 53°31' E 008°35'0 0.0
2019-Sep-18 01:30N 53°31' E 008°35'0 0.0
2019-Sep-18 01:00N 53°31' E 008°35'0 0.0
2019-Sep-18 00:27N 53°31' E 008°35'0 0.0
2019-Sep-17 23:59N 53°31' E 008°35'0 0.0
2019-Sep-17 23:26N 53°31' E 008°35'0 0.0
2019-Sep-17 23:00N 53°31' E 008°35'0 0.0
2019-Sep-17 22:30N 53°31' E 008°35'0 0.0
2019-Sep-17 22:00N 53°31' E 008°35'0 0.0
2019-Sep-17 21:29N 53°31' E 008°35'0 0.0
2019-Sep-17 20:59N 53°31' E 008°35'0 0.0
2019-Sep-17 20:29N 53°31' E 008°35'0 0.0
2019-Sep-17 19:59N 53°31' E 008°35'0 0.0
2019-Sep-17 19:26N 53°31' E 008°35'0 0.0
2019-Sep-17 18:59N 53°31' E 008°35'0 0.0
2019-Sep-17 18:29N 53°31' E 008°35'0 0.0
2019-Sep-17 17:56N 53°31' E 008°35'0 0.0
2019-Sep-17 17:29N 53°31' E 008°35'0 0.0
2019-Sep-17 16:56N 53°31' E 008°35'0 0.0
2019-Sep-17 16:29N 53°31' E 008°35'0 0.0
2019-Sep-17 15:59N 53°31' E 008°35'0 0.0
2019-Sep-17 15:29N 53°31' E 008°35'0 0.0
2019-Sep-17 14:59N 53°31' E 008°35'0 0.0
2019-Sep-17 14:29N 53°31' E 008°35'0 0.0
2019-Sep-17 13:56N 53°31' E 008°35'0 0.0
2019-Sep-17 13:29N 53°31' E 008°35'0 0.0
2019-Sep-17 12:59N 53°31' E 008°35'0 0.0
2019-Sep-17 12:26N 53°31' E 008°35'0 0.0
2019-Sep-17 11:59N 53°31' E 008°35'0 0.0
2019-Sep-17 11:29N 53°31' E 008°35'0 0.0
2019-Sep-17 10:59N 53°31' E 008°35'0 0.0
2019-Sep-17 10:29N 53°31' E 008°35'0 0.0
2019-Sep-17 09:59N 53°31' E 008°35'0 0.0
2019-Sep-17 09:26N 53°31' E 008°35'0 0.0
2019-Sep-17 08:56N 53°31' E 008°35'0 0.0
2019-Sep-17 08:29N 53°31' E 008°35'0 0.0
2019-Sep-17 07:59N 53°31' E 008°35'0 0.0
2019-Sep-17 07:29N 53°31' E 008°35'0 0.0
2019-Sep-17 06:59N 53°31' E 008°35'0 0.0
2019-Sep-17 06:29N 53°31' E 008°35'0 0.0
2019-Sep-17 05:59N 53°31' E 008°35'0 0.0
2019-Sep-17 05:29N 53°31' E 008°35'0 0.0
2019-Sep-17 04:59N 53°31' E 008°35'0 0.0
2019-Sep-17 04:29N 53°31' E 008°35'0 0.0
2019-Sep-17 03:59N 53°31' E 008°35'0 0.0
2019-Sep-17 03:30N 53°31' E 008°35'1 2.2
2019-Sep-17 03:01N 53°32' E 008°35'0 0.4
2019-Sep-17 02:30N 53°32' E 008°35'510.5
2019-Sep-17 02:01N 53°36' E 008°30'816.0
2019-Sep-17 01:30N 53°42' E 008°20'816.0
2019-Sep-17 01:00N 53°47' E 008°09'815.3
2019-Sep-17 00:31N 53°51' E 007°59'612.5
2019-Sep-17 00:00N 53°52' E 007°48'10 7.8
2019-Sep-16 22:47N 53°50' E 007°33'1 0.7
2019-Sep-16 21:58N 53°50' E 007°34'1 2.1
2019-Sep-16 21:30N 53°49' E 007°33'13 5.7
2019-Sep-16 19:11N 54°01' E 007°41'2 9.4
2019-Sep-16 19:01N 54°01' E 007°44'5 9.6
2019-Sep-16 18:31N 54°02' E 007°52'5 9.7
2019-Sep-16 18:00N 54°02' E 008°01'510.6
2019-Sep-16 17:31N 54°01' E 008°09'918.3
2019-Sep-16 17:01N 53°59' E 008°25'918.6
2019-Sep-16 16:31N 53°56' E 008°40'917.0
2019-Sep-16 16:00N 53°50' E 008°51'816.3
2019-Sep-16 15:31N 53°52' E 009°04'3 6.3
2019-Sep-16 15:01N 53°54' E 009°09'1 1.2
2019-Sep-16 14:30N 53°54' E 009°10'4 7.7
2019-Sep-16 14:00N 53°57' E 009°14'4 8.2
2019-Sep-16 13:31N 54°00' E 009°18'4 8.7
2019-Sep-16 13:00N 54°05' E 009°19'4 8.4
2019-Sep-16 12:30N 54°09' E 009°21'4 8.6
2019-Sep-16 12:00N 54°11' E 009°27'4 8.6
2019-Sep-16 11:30N 54°12' E 009°34'4 7.3
2019-Sep-16 11:00N 54°16' E 009°37'2 3.3
2019-Sep-16 10:30N 54°17' E 009°39'1 2.3
2019-Sep-16 10:00N 54°18' E 009°40'0 0.0
2019-Sep-16 09:30N 54°18' E 009°40'0 0.0
2019-Sep-16 09:00N 54°18' E 009°40'0 0.0
2019-Sep-16 08:30N 54°18' E 009°40'0 0.0
2019-Sep-16 08:00N 54°18' E 009°40'0 0.0
2019-Sep-16 07:30N 54°18' E 009°40'0 0.0
2019-Sep-16 07:00N 54°18' E 009°40'0 0.0
2019-Sep-16 06:30N 54°18' E 009°40'0 0.0
2019-Sep-16 06:00N 54°18' E 009°40'0 0.0
2019-Sep-16 05:30N 54°18' E 009°40'0 0.0
2019-Sep-16 05:00N 54°18' E 009°40'0 0.0
2019-Sep-16 04:30N 54°18' E 009°40'0 0.0
2019-Sep-16 04:00N 54°18' E 009°40'0 0.0
2019-Sep-16 03:30N 54°18' E 009°40'0 0.0
2019-Sep-16 03:00N 54°18' E 009°40'0 0.0
2019-Sep-16 02:30N 54°18' E 009°40'0 0.0
2019-Sep-16 02:00N 54°18' E 009°40'0 0.0
2019-Sep-16 01:30N 54°18' E 009°40'0 0.0
2019-Sep-16 01:00N 54°18' E 009°40'0 0.0
2019-Sep-16 00:30N 54°18' E 009°40'0 0.0
2019-Sep-16 00:00N 54°18' E 009°40'0 0.0
2019-Sep-15 23:29N 54°18' E 009°40'0 0.0
2019-Sep-15 22:59N 54°18' E 009°40'0 0.0
2019-Sep-15 22:29N 54°18' E 009°40'0 0.0
2019-Sep-15 21:59N 54°18' E 009°40'0 0.0
2019-Sep-15 21:29N 54°18' E 009°40'0 0.0
2019-Sep-15 20:59N 54°18' E 009°40'0 0.0
2019-Sep-15 20:29N 54°18' E 009°40'0 0.0
2019-Sep-15 19:59N 54°18' E 009°40'0 0.0
2019-Sep-15 19:29N 54°18' E 009°40'0 0.0
2019-Sep-15 18:59N 54°18' E 009°40'0 0.0
2019-Sep-15 18:29N 54°18' E 009°40'0 0.0
2019-Sep-15 17:59N 54°18' E 009°40'0 0.0
2019-Sep-15 17:29N 54°18' E 009°40'0 0.0
2019-Sep-15 16:59N 54°18' E 009°40'0 0.0
2019-Sep-15 16:29N 54°18' E 009°40'0 0.0
2019-Sep-15 15:59N 54°18' E 009°40'0 0.0
2019-Sep-15 15:29N 54°18' E 009°40'0 0.0
2019-Sep-15 14:59N 54°18' E 009°40'0 0.0
2019-Sep-15 14:29N 54°18' E 009°40'0 0.0
2019-Sep-15 13:59N 54°18' E 009°40'0 0.0
2019-Sep-15 13:29N 54°18' E 009°40'0 0.0
2019-Sep-15 12:59N 54°18' E 009°40'0 0.0
2019-Sep-15 12:29N 54°18' E 009°40'0 0.0
2019-Sep-15 11:59N 54°18' E 009°40'0 0.0
2019-Sep-15 11:29N 54°18' E 009°40'0 0.0
2019-Sep-15 10:59N 54°18' E 009°40'0 0.2
2019-Sep-15 10:30N 54°18' E 009°40'2 3.2
2019-Sep-15 10:00N 54°18' E 009°43'7 6.7
2019-Sep-15 08:58N 54°21' E 009°54'4 7.8
2019-Sep-15 08:30N 54°21' E 009°60'4 7.9
2019-Sep-15 08:00N 54°22' E 010°06'1 2.7
2019-Sep-15 07:30N 54°22' E 010°08'0 0.0
2019-Sep-15 07:00N 54°22' E 010°08'0 0.9
2019-Sep-15 06:30N 54°22' E 010°09'1 1.7
2019-Sep-15 06:00N 54°22' E 010°10'1 1.9
2019-Sep-15 05:30N 54°23' E 010°11'3 6.0
2019-Sep-15 05:00N 54°26' E 010°13'510.1
2019-Sep-15 04:30N 54°30' E 010°18'2 4.4
2019-Sep-15 04:00N 54°32' E 010°17'0 1.0
2019-Sep-15 03:30N 54°33' E 010°17'1 1.3
2019-Sep-15 03:00N 54°33' E 010°17'1 1.1
2019-Sep-15 02:30N 54°33' E 010°17'1 1.1
2019-Sep-15 02:00N 54°32' E 010°17'0 0.6
2019-Sep-15 01:30N 54°33' E 010°17'1 1.7
2019-Sep-15 01:00N 54°33' E 010°17'1 1.1
2019-Sep-15 00:30N 54°33' E 010°17'1 1.1
2019-Sep-15 00:00N 54°32' E 010°17'0 0.9
2019-Sep-14 23:30N 54°33' E 010°17'1 1.5
2019-Sep-14 23:00N 54°33' E 010°17'0 0.9
2019-Sep-14 22:30N 54°33' E 010°17'0 1.0
2019-Sep-14 22:00N 54°33' E 010°17'1 1.0
2019-Sep-14 21:31N 54°32' E 010°17'1 1.9
2019-Sep-14 21:00N 54°33' E 010°17'1 1.3
2019-Sep-14 20:31N 54°34' E 010°16'0 0.7
2019-Sep-14 20:01N 54°33' E 010°16'0 0.7
2019-Sep-14 19:31N 54°33' E 010°17'0 0.7
2019-Sep-14 19:01N 54°33' E 010°17'0 0.6
2019-Sep-14 18:31N 54°32' E 010°17'0 0.6
2019-Sep-14 18:00N 54°32' E 010°17'0 0.5
2019-Sep-14 17:31N 54°32' E 010°17'2 3.2
2019-Sep-14 17:01N 54°33' E 010°18'0 0.6
2019-Sep-14 16:31N 54°33' E 010°18'0 0.6
2019-Sep-14 16:01N 54°33' E 010°18'3 6.6
2019-Sep-14 15:30N 54°34' E 010°23'4 9.0
2019-Sep-14 15:01N 54°35' E 010°31'5 9.2
2019-Sep-14 14:30N 54°36' E 010°38'4 9.2
2019-Sep-14 14:01N 54°37' E 010°46'4 8.6
2019-Sep-14 13:30N 54°38' E 010°53'3 6.6
2019-Sep-14 13:01N 54°36' E 010°56'4 8.4
2019-Sep-14 12:30N 54°36' E 011°03'4 8.1
2019-Sep-14 12:00N 54°36' E 011°10'4 8.1
2019-Sep-14 11:31N 54°34' E 011°17'4 8.0
2019-Sep-14 11:01N 54°32' E 011°23'4 8.4
2019-Sep-14 10:31N 54°31' E 011°29'4 7.9
2019-Sep-14 10:00N 54°29' E 011°36'4 7.8
2019-Sep-14 09:29N 54°27' E 011°42'8 8.2
2019-Sep-14 08:28N 54°21' E 011°52'4 8.2
2019-Sep-14 08:00N 54°18' E 011°56'4 8.9
2019-Sep-14 07:30N 54°15' E 012°01'3 2.8
2019-Sep-14 06:24N 54°12' E 012°03'2 2.9
2019-Sep-14 05:48N 54°12' E 012°00'2 4.5
2019-Sep-14 05:18N 54°11' E 011°57'2 5.6
2019-Sep-14 04:56N 54°11' E 011°53'2 5.4
2019-Sep-14 04:30N 54°10' E 011°50'0 0.6
2019-Sep-14 04:00N 54°10' E 011°50'1 0.7
2019-Sep-14 03:14N 54°11' E 011°49'0 0.7
2019-Sep-14 02:59N 54°11' E 011°49'0 0.8
2019-Sep-14 02:30N 54°11' E 011°49'0 0.5
2019-Sep-14 01:36N 54°11' E 011°49'0 0.4
2019-Sep-14 01:03N 54°11' E 011°49'0 0.7
2019-Sep-14 00:46N 54°11' E 011°49'0 0.7
2019-Sep-14 00:27N 54°11' E 011°49'0 0.8
2019-Sep-13 23:58N 54°12' E 011°48'1 0.5
2019-Sep-13 22:13N 54°11' E 011°49'0 2.3
2019-Sep-13 22:00N 54°10' E 011°49'2 3.7
2019-Sep-13 21:30N 54°12' E 011°48'1 0.6
2019-Sep-13 19:57N 54°13' E 011°49'5 9.3
2019-Sep-13 19:27N 54°16' E 011°55'5 8.8
2019-Sep-13 18:55N 54°19' E 012°01'15 8.7
2019-Sep-13 17:13N 54°27' E 012°23'2 9.2
2019-Sep-13 16:59N 54°29' E 012°25'4 9.2
2019-Sep-13 16:30N 54°32' E 012°29'11 0.2
2019-Sep-11 14:14N 54°36' E 012°46'210.4
2019-Sep-11 14:00N 54°35' E 012°42'510.3
2019-Sep-11 13:30N 54°34' E 012°34'510.2
2019-Sep-11 13:00N 54°31' E 012°26'4 8.3
2019-Sep-11 12:30N 54°28' E 012°21'4 8.6
2019-Sep-11 12:01N 54°24' E 012°18'3 5.4
2019-Sep-11 11:25N 54°21' E 012°15'1 2.9
2019-Sep-11 10:59N 54°21' E 012°13'1 2.3
2019-Sep-11 10:26N 54°21' E 012°11'3 7.7
2019-Sep-11 09:59N 54°23' E 012°16'5 9.1
2019-Sep-11 09:29N 54°26' E 012°21'5 9.0
2019-Sep-11 08:53N 54°31' E 012°26'13 0.6
2019-Sep-10 09:29N 54°36' E 012°47'510.0
2019-Sep-10 09:00N 54°34' E 012°40'510.1
2019-Sep-10 08:30N 54°34' E 012°31'15 8.6
2019-Sep-10 06:45N 54°21' E 012°16'0 1.8
2019-Sep-10 06:30N 54°21' E 012°16'3 6.0
2019-Sep-10 06:00N 54°20' E 012°12'5 9.8
2019-Sep-10 05:30N 54°19' E 012°03'9 3.9
2019-Sep-10 03:18N 54°14' E 011°51'0 1.2
2019-Sep-10 02:59N 54°14' E 011°51'2 1.2
2019-Sep-10 00:51N 54°11' E 011°52'0 0.8
2019-Sep-10 00:27N 54°11' E 011°51'0 1.0
2019-Sep-09 23:57N 54°11' E 011°51'0 0.2
2019-Sep-09 22:15N 54°10' E 011°51'0 0.2
2019-Sep-09 22:01N 54°11' E 011°51'0 0.4
2019-Sep-09 21:31N 54°11' E 011°51'1 0.5
2019-Sep-09 20:32N 54°10' E 011°51'0 0.3
2019-Sep-09 19:57N 54°10' E 011°51'0 0.6
2019-Sep-09 19:30N 54°10' E 011°51'0 0.4
2019-Sep-09 19:00N 54°10' E 011°51'0 0.4
2019-Sep-09 17:55N 54°11' E 011°51'1 1.4
2019-Sep-09 17:30N 54°10' E 011°51'0 0.7
2019-Sep-09 17:00N 54°10' E 011°51'1 0.4
2019-Sep-09 15:29N 54°10' E 011°50'1 1.2
2019-Sep-09 15:00N 54°11' E 011°51'4 7.1
2019-Sep-09 14:27N 54°14' E 011°53'4 9.9
2019-Sep-09 14:00N 54°15' E 012°01'6 7.0
2019-Sep-09 13:11N 54°10' E 012°07'0 0.8
2019-Sep-09 12:44N 54°11' E 012°07'0 0.0
2019-Sep-09 12:29N 54°11' E 012°07'0 0.0
2019-Sep-09 11:56N 54°11' E 012°07'0 0.0
2019-Sep-09 09:41N 54°11' E 012°07'0 0.0
2019-Sep-09 09:17N 54°11' E 012°07'0 0.0
2019-Sep-09 08:59N 54°11' E 012°07'0 0.0
2019-Sep-09 04:44N 54°11' E 012°07'0 0.0
2019-Sep-09 04:26N 54°11' E 012°07'0 0.0
2019-Sep-09 03:02N 54°11' E 012°07'0 0.0
2019-Sep-09 02:59N 54°11' E 012°07'0 0.0
2019-Sep-08 23:50N 54°11' E 012°07'0 0.0
2019-Sep-08 21:41N 54°11' E 012°07'0 0.0
2019-Sep-08 21:29N 54°11' E 012°07'0 0.0
2019-Sep-08 19:32N 54°11' E 012°07'0 0.0
2019-Sep-08 19:29N 54°11' E 012°07'0 0.0
2019-Sep-08 16:11N 54°11' E 012°07'0 0.0
2019-Sep-08 15:29N 54°11' E 012°07'0 0.0
2019-Sep-08 12:59N 54°11' E 012°07'0 0.0
2019-Sep-08 12:08N 54°11' E 012°07'  

Dump ship's entire track history